createdAt,value
2023-05-05T00:01:02.437Z,6.45
2023-05-05T00:03:30.400Z,6.90
2023-05-05T00:05:58.190Z,6.40
2023-05-05T00:08:25.697Z,6.22
2023-05-05T00:10:53.867Z,6.35
2023-05-05T00:13:22.031Z,7.72
2023-05-05T00:15:51.473Z,7.18
2023-05-05T00:18:19.706Z,6.75
2023-05-05T00:20:47.877Z,5.85
2023-05-05T00:23:16.448Z,5.32
2023-05-05T00:25:44.086Z,7.43
2023-05-05T00:28:11.701Z,5.65
2023-05-05T00:30:40.295Z,5.57
2023-05-05T00:33:07.932Z,10.27
2023-05-05T00:35:36.025Z,4.65
2023-05-05T00:38:05.177Z,6.85
2023-05-05T00:40:32.853Z,4.53
2023-05-05T00:43:00.292Z,4.55
2023-05-05T00:45:27.987Z,3.83
2023-05-05T00:47:59.093Z,5.70
2023-05-05T00:50:29.309Z,5.07
2023-05-05T00:53:00.484Z,4.00
2023-05-05T00:55:29.861Z,3.13
2023-05-05T00:58:01.308Z,4.70
2023-05-05T01:00:30.209Z,3.45
2023-05-05T01:02:58.138Z,5.90
2023-05-05T01:05:28.012Z,3.45
2023-05-05T01:08:03.182Z,3.75
2023-05-05T01:10:33.997Z,5.88
2023-05-05T01:13:31.724Z,3.75
2023-05-05T01:16:25.602Z,3.35
2023-05-05T01:19:04.154Z,3.70
2023-05-05T01:21:38.779Z,4.25
2023-05-05T01:24:35.171Z,4.38
2023-05-05T01:27:48.496Z,3.15
2023-05-05T01:30:24.557Z,3.78
2023-05-05T01:32:56.884Z,5.93
2023-05-05T01:35:32.086Z,4.43
2023-05-05T01:38:06.918Z,7.40
2023-05-05T01:40:39.502Z,3.60
2023-05-05T01:43:08.887Z,3.30
2023-05-05T01:45:40.090Z,4.18
2023-05-05T01:48:09.163Z,4.95
2023-05-05T01:50:37.549Z,5.13
2023-05-05T01:53:06.419Z,5.32
2023-05-05T01:55:34.716Z,4.68
2023-05-05T01:58:03.935Z,3.78
2023-05-05T02:00:33.583Z,7.03
2023-05-05T02:03:04.626Z,4.45
2023-05-05T02:05:33.965Z,5.05
2023-05-05T02:08:03.313Z,4.78
2023-05-05T02:10:31.188Z,3.83
2023-05-05T02:13:04.461Z,7.43
2023-05-05T02:18:05.778Z,3.90
2023-05-05T02:20:34.150Z,4.07
2023-05-05T02:23:01.939Z,3.75
2023-05-05T02:25:42.206Z,5.03
2023-05-05T02:28:21.954Z,3.83
2023-05-05T02:31:00.341Z,4.07
2023-05-05T02:33:32.727Z,5.47
2023-05-05T02:36:12.609Z,4.30
2023-05-05T02:38:44.470Z,6.20
2023-05-05T02:41:17.077Z,5.55
2023-05-05T02:43:46.571Z,4.40
2023-05-05T02:46:14.118Z,5.00
2023-05-05T02:48:41.919Z,7.05
2023-05-05T02:51:09.527Z,4.80
2023-05-05T02:53:37.065Z,4.57
2023-05-05T02:56:13.438Z,5.07
2023-05-05T02:58:59.493Z,4.60
2023-05-05T03:02:03.668Z,4.00
2023-05-05T03:05:13.660Z,4.63
2023-05-05T03:08:01.442Z,5.38
2023-05-05T03:10:38.436Z,4.65
2023-05-05T03:13:09.704Z,4.60
2023-05-05T03:15:43.398Z,4.50
2023-05-05T03:18:12.319Z,5.13
2023-05-05T03:20:40.938Z,7.20
2023-05-05T03:23:08.808Z,3.85
2023-05-05T03:25:46.723Z,6.53
2023-05-05T03:28:15.334Z,5.75
2023-05-05T03:30:42.957Z,4.22
2023-05-05T03:33:12.376Z,6.18
2023-05-05T03:35:39.979Z,5.93
2023-05-05T03:38:07.710Z,6.28
2023-05-05T03:40:43.547Z,7.60
2023-05-05T03:43:12.304Z,5.55
2023-05-05T03:45:39.957Z,7.68
2023-05-05T03:48:09.766Z,7.20
2023-05-05T03:50:37.822Z,5.63
2023-05-05T03:53:05.361Z,7.10
2023-05-05T03:55:32.890Z,6.85
2023-05-05T03:58:00.411Z,6.05
2023-05-05T04:00:28.314Z,5.60
2023-05-05T04:02:56.357Z,7.82
2023-05-05T04:05:24.053Z,9.38
2023-05-05T04:07:51.701Z,9.73
2023-05-05T04:10:19.152Z,9.18
2023-05-05T04:12:46.696Z,7.00
2023-05-05T04:15:14.236Z,6.97
2023-05-05T04:17:41.818Z,7.20
2023-05-05T04:20:10.337Z,8.70
2023-05-05T04:22:38.081Z,8.02
2023-05-05T04:25:06.259Z,7.38
2023-05-05T04:27:34.050Z,7.43
2023-05-05T04:30:01.627Z,8.65
2023-05-05T04:32:29.109Z,7.00
2023-05-05T04:34:56.698Z,7.00
2023-05-05T04:37:25.675Z,9.63
2023-05-05T04:39:53.246Z,8.80
2023-05-05T04:42:20.923Z,8.02
2023-05-05T04:44:48.390Z,6.22
2023-05-05T04:47:15.869Z,9.15
2023-05-05T04:49:43.349Z,8.60
2023-05-05T04:52:13.724Z,6.75
2023-05-05T04:54:41.334Z,13.70
2023-05-05T04:57:08.859Z,8.32
2023-05-05T04:59:36.813Z,11.00
2023-05-05T05:02:04.360Z,7.70
2023-05-05T05:04:32.023Z,6.80
2023-05-05T05:06:59.738Z,10.75
2023-05-05T05:09:27.416Z,7.75
2023-05-05T05:11:58.859Z,11.45
2023-05-05T05:14:28.317Z,10.60
2023-05-05T05:16:55.819Z,8.25
2023-05-05T05:19:23.295Z,8.55
2023-05-05T05:21:51.254Z,9.13
2023-05-05T05:24:18.752Z,9.40
2023-05-05T05:26:46.286Z,7.28
2023-05-05T05:29:13.838Z,12.15
2023-05-05T05:31:41.490Z,7.22
2023-05-05T05:34:10.719Z,8.10
2023-05-05T05:36:39.672Z,9.57
2023-05-05T05:39:07.240Z,7.50
2023-05-05T05:41:34.862Z,6.68
2023-05-05T05:44:02.455Z,7.35
2023-05-05T05:46:30.046Z,8.30
2023-05-05T05:48:57.815Z,8.10
2023-05-05T05:51:25.724Z,7.57
2023-05-05T05:53:53.384Z,7.10
2023-05-05T05:56:21.663Z,6.97
2023-05-05T05:58:49.209Z,7.40
2023-05-05T06:01:16.714Z,7.30
2023-05-05T06:03:44.330Z,10.70
2023-05-05T06:06:12.115Z,6.68
2023-05-05T06:08:39.707Z,6.30
2023-05-05T06:11:08.149Z,6.38
2023-05-05T06:13:35.958Z,7.78
2023-05-05T06:16:03.561Z,6.05
2023-05-05T06:18:31.098Z,9.88
2023-05-05T06:20:58.697Z,5.90
2023-05-05T06:23:26.240Z,7.75
2023-05-05T06:25:55.477Z,5.68
2023-05-05T06:28:23.237Z,7.10
2023-05-05T06:30:50.980Z,7.07
2023-05-05T06:33:18.492Z,6.57
2023-05-05T06:35:47.310Z,8.75
2023-05-05T06:38:14.910Z,9.23
2023-05-05T06:40:42.465Z,6.43
2023-05-05T06:43:10.106Z,6.43
2023-05-05T06:45:37.640Z,6.72
2023-05-05T06:48:05.299Z,7.13
2023-05-05T06:50:33.173Z,6.80
2023-05-05T06:53:01.278Z,8.02
2023-05-05T06:55:28.880Z,6.43
2023-05-05T06:57:56.729Z,12.55
2023-05-05T07:00:24.568Z,6.57
2023-05-05T07:02:52.077Z,5.95
2023-05-05T07:05:19.774Z,5.03
2023-05-05T07:07:57.456Z,7.03
2023-05-05T07:10:25.978Z,5.28
2023-05-05T07:12:55.047Z,5.72
2023-05-05T07:15:27.961Z,5.05
2023-05-05T07:17:56.927Z,5.93
2023-05-05T07:20:24.741Z,6.00
2023-05-05T07:22:52.374Z,5.75
2023-05-05T07:25:20.054Z,6.82
2023-05-05T07:27:47.656Z,6.63
2023-05-05T07:30:17.607Z,5.10
2023-05-05T07:32:46.876Z,5.38
2023-05-05T07:35:14.557Z,6.43
2023-05-05T07:37:42.229Z,4.63
2023-05-05T07:40:10.610Z,6.07
2023-05-05T07:42:38.371Z,6.07
2023-05-05T07:45:06.925Z,4.25
2023-05-05T07:47:34.491Z,9.55
2023-05-05T07:50:02.304Z,5.22
2023-05-05T07:52:44.342Z,5.70
2023-05-05T07:55:13.904Z,7.13
2023-05-05T07:57:41.651Z,5.43
2023-05-05T08:00:10.403Z,3.67
2023-05-05T08:02:38.224Z,4.85
2023-05-05T08:05:06.386Z,6.85
2023-05-05T08:07:34.203Z,6.05
2023-05-05T08:10:01.774Z,5.80
2023-05-05T08:12:29.279Z,6.85
2023-05-05T08:14:56.838Z,4.75
2023-05-05T08:17:26.408Z,3.75
2023-05-05T08:19:53.934Z,8.13
2023-05-05T08:22:24.477Z,10.45
2023-05-05T08:24:52.007Z,5.13
2023-05-05T08:27:19.465Z,6.10
2023-05-05T08:29:46.967Z,3.80
2023-05-05T08:32:16.420Z,3.15
2023-05-05T08:34:43.925Z,3.08
2023-05-05T08:37:11.589Z,3.40
2023-05-05T08:39:39.191Z,3.15
2023-05-05T08:42:06.779Z,3.42
2023-05-05T08:44:34.265Z,3.85
2023-05-05T08:47:02.873Z,3.28
2023-05-05T08:49:44.166Z,2.63
2023-05-05T08:52:15.964Z,4.18
2023-05-05T08:54:50.597Z,2.13
2023-05-05T08:57:28.515Z,2.40
2023-05-05T08:59:57.321Z,4.28
2023-05-05T09:02:28.736Z,2.22
2023-05-05T09:04:57.041Z,3.60
2023-05-05T09:07:25.265Z,5.65
2023-05-05T09:09:53.193Z,4.97
2023-05-05T09:12:22.547Z,6.75
2023-05-05T09:14:49.998Z,2.63
2023-05-05T09:17:25.485Z,4.15
2023-05-05T09:20:10.274Z,8.23
2023-05-05T09:22:38.797Z,6.55
2023-05-05T09:25:08.836Z,7.72
2023-05-05T09:27:37.904Z,5.10
2023-05-05T09:30:07.886Z,3.70
2023-05-05T09:32:49.088Z,3.05
2023-05-05T09:35:17.859Z,2.97
2023-05-05T09:37:45.630Z,4.13
2023-05-05T09:40:18.714Z,2.63
2023-05-05T09:42:46.825Z,3.55
2023-05-05T09:45:20.221Z,1.38
2023-05-05T09:50:18.966Z,2.60
2023-05-05T09:53:01.061Z,5.63
2023-05-05T09:55:31.280Z,1.10
2023-05-05T09:58:20.071Z,1.90
2023-05-05T10:00:47.939Z,3.28
2023-05-05T10:03:16.248Z,1.70
2023-05-05T10:05:54.292Z,2.42
2023-05-05T10:08:24.868Z,3.63
2023-05-05T10:10:58.477Z,3.17
2023-05-05T10:13:26.384Z,5.15
2023-05-05T10:15:57.840Z,8.35
2023-05-05T10:18:27.542Z,9.18
2023-05-05T10:21:03.383Z,9.38
2023-05-05T10:23:33.984Z,8.88
2023-05-05T10:26:06.582Z,9.60
2023-05-05T10:28:44.939Z,6.80
2023-05-05T10:31:25.052Z,8.05
2023-05-05T10:34:00.580Z,8.43
2023-05-05T10:36:29.717Z,6.43
2023-05-05T10:38:58.027Z,5.88
2023-05-05T10:41:27.175Z,5.32
2023-05-05T10:43:59.644Z,5.32
2023-05-05T10:46:29.729Z,4.45
2023-05-05T10:49:10.500Z,5.07
2023-05-05T10:51:55.961Z,5.43
2023-05-05T10:54:46.033Z,3.38
2023-05-05T10:57:16.786Z,2.28
2023-05-05T10:59:44.426Z,2.97
2023-05-05T11:02:28.985Z,4.05
2023-05-05T11:05:21.768Z,2.70
2023-05-05T11:07:50.959Z,2.78
2023-05-05T11:10:23.877Z,4.28
2023-05-05T11:13:05.942Z,5.10
2023-05-05T11:15:37.692Z,2.10
2023-05-05T11:18:07.901Z,1.95
2023-05-05T11:20:39.929Z,3.72
2023-05-05T11:23:07.803Z,2.78
2023-05-05T11:25:35.717Z,4.18
2023-05-05T11:28:21.837Z,2.38
2023-05-05T11:30:55.244Z,3.55
2023-05-05T11:33:35.093Z,2.17
2023-05-05T11:36:06.689Z,6.00
2023-05-05T11:39:05.737Z,5.65
2023-05-05T11:41:33.580Z,3.92
2023-05-05T11:44:13.743Z,4.78
2023-05-05T11:47:02.105Z,4.40
2023-05-05T11:49:33.286Z,7.03
2023-05-05T11:52:12.741Z,2.78
2023-05-05T11:54:49.113Z,1.73
2023-05-05T11:57:20.026Z,8.52
2023-05-05T12:00:17.808Z,2.38
2023-05-05T12:02:45.540Z,3.70
2023-05-05T12:05:20.226Z,2.45
2023-05-05T12:07:48.064Z,3.38
2023-05-05T12:10:23.082Z,4.05
2023-05-05T12:12:51.022Z,3.38
2023-05-05T12:15:29.777Z,3.75
2023-05-05T12:17:57.567Z,3.92
2023-05-05T12:20:36.723Z,3.55
2023-05-05T12:23:04.859Z,2.17
2023-05-05T12:25:37.073Z,3.60
2023-05-05T12:28:06.649Z,6.80
2023-05-05T12:30:34.832Z,1.80
2023-05-05T12:33:04.053Z,3.83
2023-05-05T12:35:32.342Z,3.20
2023-05-05T12:38:00.182Z,5.35
2023-05-05T12:40:48.094Z,2.85
2023-05-05T12:43:34.438Z,3.03
2023-05-05T12:46:05.149Z,4.85
2023-05-05T12:48:33.328Z,3.30
2023-05-05T12:51:14.874Z,1.40
2023-05-05T12:53:42.730Z,2.47
2023-05-05T12:56:29.281Z,1.90
2023-05-05T12:58:57.403Z,3.63
2023-05-05T13:01:25.144Z,5.93
2023-05-05T13:04:13.019Z,2.22
2023-05-05T13:06:48.303Z,2.63
2023-05-05T13:09:30.602Z,1.33
2023-05-05T13:11:58.180Z,3.10
2023-05-05T13:14:25.879Z,4.15
2023-05-05T13:16:53.728Z,1.58
2023-05-05T13:19:21.320Z,2.97
2023-05-05T13:21:49.207Z,2.28
2023-05-05T13:26:47.755Z,3.30
2023-05-05T13:29:16.628Z,1.55
2023-05-05T13:31:45.971Z,2.40
2023-05-05T13:34:13.652Z,3.22
2023-05-05T13:36:41.277Z,4.40
2023-05-05T13:39:09.110Z,4.55
2023-05-05T13:41:36.749Z,2.75
2023-05-05T13:44:04.367Z,4.07
2023-05-05T13:46:31.927Z,2.47
2023-05-05T13:48:59.400Z,4.28
2023-05-05T13:51:26.984Z,2.95
2023-05-05T13:53:54.506Z,3.42
2023-05-05T13:56:26.182Z,4.05
2023-05-05T13:58:54.577Z,1.75
2023-05-05T14:01:22.365Z,1.60
2023-05-05T14:03:50.161Z,4.07
2023-05-05T14:06:17.860Z,2.03
2023-05-05T14:08:46.245Z,4.88
2023-05-05T14:11:14.035Z,1.77
2023-05-05T14:13:41.618Z,3.67
2023-05-05T14:16:09.164Z,3.60
2023-05-05T14:18:36.711Z,2.00
2023-05-05T14:21:04.461Z,2.22
2023-05-05T14:23:32.145Z,2.75
2023-05-05T14:25:59.742Z,1.13
2023-05-05T14:28:27.375Z,2.70
2023-05-05T14:30:55.006Z,1.52
2023-05-05T14:33:22.497Z,3.05
2023-05-05T14:35:50.081Z,3.90
2023-05-05T14:38:18.121Z,0.43
2023-05-05T14:40:45.993Z,2.58
2023-05-05T14:43:13.608Z,1.10
2023-05-05T14:45:41.549Z,0.65
2023-05-05T14:48:09.535Z,2.05
2023-05-05T14:50:37.392Z,2.05
2023-05-05T14:53:05.592Z,2.20
2023-05-05T14:55:33.901Z,1.10
2023-05-05T14:58:01.505Z,3.25
2023-05-05T15:00:29.142Z,0.95
2023-05-05T15:02:56.800Z,2.22
2023-05-05T15:05:24.397Z,2.50
2023-05-05T15:07:51.944Z,3.75
2023-05-05T15:10:21.720Z,0.65
2023-05-05T15:12:49.760Z,4.07
2023-05-05T15:15:17.407Z,2.20
2023-05-05T15:17:44.993Z,2.08
2023-05-05T15:20:12.883Z,1.05
2023-05-05T15:22:40.315Z,2.58
2023-05-05T15:25:12.368Z,2.10
2023-05-05T15:27:40.671Z,2.50
2023-05-05T15:30:08.629Z,3.03
2023-05-05T15:32:36.187Z,4.20
2023-05-05T15:35:04.168Z,3.33
2023-05-05T15:37:31.783Z,3.60
2023-05-05T15:39:59.283Z,2.88
2023-05-05T15:42:27.093Z,1.30
2023-05-05T15:44:54.959Z,0.90
2023-05-05T15:47:22.566Z,4.00
2023-05-05T15:49:50.100Z,0.90
2023-05-05T15:52:17.834Z,2.53
2023-05-05T15:54:45.522Z,2.15
2023-05-05T15:57:13.270Z,2.22
2023-05-05T15:59:41.491Z,2.63
2023-05-05T16:02:09.051Z,2.85
2023-05-05T16:04:36.652Z,2.22
2023-05-05T16:07:04.241Z,2.05
2023-05-05T16:09:31.729Z,1.95
2023-05-05T16:11:59.223Z,1.17
2023-05-05T16:14:28.279Z,0.93
2023-05-05T16:16:56.342Z,2.20
2023-05-05T16:19:26.828Z,4.28
2023-05-05T16:21:55.303Z,2.88
2023-05-05T16:24:23.058Z,2.35
2023-05-05T16:26:50.540Z,5.78
2023-05-05T16:29:18.102Z,3.55
2023-05-05T16:31:45.618Z,2.67
2023-05-05T16:34:13.472Z,3.05
2023-05-05T16:36:42.468Z,2.50
2023-05-05T16:39:12.057Z,3.58
2023-05-05T16:41:40.199Z,2.83
2023-05-05T16:44:07.783Z,5.18
2023-05-05T16:46:37.452Z,2.88
2023-05-05T16:49:05.224Z,3.30
2023-05-05T16:51:32.842Z,3.38
2023-05-05T16:54:00.274Z,4.22
2023-05-05T16:56:27.770Z,4.07
2023-05-05T16:58:55.353Z,2.88
2023-05-05T17:01:22.968Z,6.13
2023-05-05T17:03:50.735Z,5.45
2023-05-05T17:06:18.397Z,4.03
2023-05-05T17:08:45.941Z,3.75
2023-05-05T17:11:13.588Z,5.60
2023-05-05T17:13:41.364Z,4.43
2023-05-05T17:16:08.842Z,4.65
2023-05-05T17:18:37.260Z,5.70
2023-05-05T17:21:05.942Z,6.70
2023-05-05T17:23:33.528Z,5.05
2023-05-05T17:26:01.059Z,4.07
2023-05-05T17:28:28.580Z,3.22
2023-05-05T17:30:59.649Z,3.35
2023-05-05T17:33:27.197Z,4.97
2023-05-05T17:35:55.197Z,4.85
2023-05-05T17:38:22.733Z,5.13
2023-05-05T17:40:50.277Z,4.03
2023-05-05T17:43:17.800Z,5.13
2023-05-05T17:45:47.132Z,5.32
2023-05-05T17:48:14.640Z,5.35
2023-05-05T17:50:43.445Z,6.20
2023-05-05T17:53:11.433Z,4.10
2023-05-05T17:55:38.934Z,6.40
2023-05-05T17:58:06.490Z,4.18
2023-05-05T18:00:34.248Z,5.90
2023-05-05T18:03:01.798Z,4.72
2023-05-05T18:05:30.003Z,4.07
2023-05-05T18:07:57.532Z,4.22
2023-05-05T18:10:26.675Z,3.80
2023-05-05T18:12:54.550Z,4.47
2023-05-05T18:15:22.759Z,5.45
2023-05-05T18:17:51.149Z,5.80
2023-05-05T18:20:18.949Z,4.22
2023-05-05T18:22:46.976Z,4.30
2023-05-05T18:25:14.532Z,5.05
2023-05-05T18:27:42.170Z,5.15
2023-05-05T18:30:10.053Z,7.05
2023-05-05T18:32:38.449Z,6.13
2023-05-05T18:35:06.633Z,6.70
2023-05-05T18:37:34.233Z,6.45
2023-05-05T18:40:01.750Z,5.60
2023-05-05T18:42:30.690Z,6.20
2023-05-05T18:44:58.251Z,4.90
2023-05-05T18:47:26.637Z,5.93
2023-05-05T18:49:54.253Z,8.18
2023-05-05T18:52:21.879Z,5.30
2023-05-05T18:54:49.333Z,6.95
2023-05-05T18:57:16.903Z,5.78
2023-05-05T18:59:44.670Z,6.63
2023-05-05T19:02:12.202Z,6.15
2023-05-05T19:04:41.529Z,6.82
2023-05-05T19:07:09.308Z,5.68
2023-05-05T19:09:37.285Z,11.48
2023-05-05T19:12:05.248Z,7.10
2023-05-05T19:14:32.765Z,6.63
2023-05-05T19:17:01.607Z,7.18
2023-05-05T19:19:29.424Z,5.00
2023-05-05T19:21:58.224Z,6.68
2023-05-05T19:24:25.769Z,5.55
2023-05-05T19:26:53.429Z,7.95
2023-05-05T19:29:20.984Z,5.28
2023-05-05T19:31:48.488Z,8.07
2023-05-05T19:34:16.191Z,8.43
2023-05-05T19:36:43.687Z,7.53
2023-05-05T19:39:12.152Z,6.70
2023-05-05T19:41:40.797Z,5.93
2023-05-05T19:44:08.330Z,6.65
2023-05-05T19:46:35.949Z,10.07
2023-05-05T19:49:04.046Z,5.47
2023-05-05T19:51:32.014Z,7.10
2023-05-05T19:53:59.660Z,10.15
2023-05-05T19:56:27.219Z,7.20
2023-05-05T19:58:55.697Z,7.15
2023-05-05T20:01:23.574Z,6.07
2023-05-05T20:03:54.399Z,7.35
2023-05-05T20:06:22.412Z,7.85
2023-05-05T20:08:49.868Z,7.00
2023-05-05T20:11:17.944Z,6.22
2023-05-05T20:13:45.553Z,8.60
2023-05-05T20:16:13.567Z,7.53
2023-05-05T20:18:41.334Z,7.07
2023-05-05T20:21:09.089Z,8.05
2023-05-05T20:23:37.225Z,6.55
2023-05-05T20:26:04.773Z,8.10
2023-05-05T20:28:32.651Z,6.55
2023-05-05T20:31:01.176Z,6.22
2023-05-05T20:33:29.678Z,9.20
2023-05-05T20:35:57.392Z,7.25
2023-05-05T20:38:24.985Z,6.18
2023-05-05T20:40:52.545Z,5.93
2023-05-05T20:43:21.216Z,6.80
2023-05-05T20:45:48.681Z,5.30
2023-05-05T20:48:16.397Z,7.78
2023-05-05T20:50:44.115Z,6.25
2023-05-05T20:53:15.768Z,6.13
2023-05-05T20:55:43.557Z,7.78
2023-05-05T20:58:11.091Z,8.43
2023-05-05T21:00:38.691Z,7.63
2023-05-05T21:03:06.502Z,8.25
2023-05-05T21:05:34.177Z,8.52
2023-05-05T21:08:01.928Z,8.07
2023-05-05T21:10:29.566Z,6.78
2023-05-05T21:12:57.063Z,6.97
2023-05-05T21:15:25.099Z,7.20
2023-05-05T21:17:52.656Z,6.82
2023-05-05T21:20:21.128Z,5.50
2023-05-05T21:22:48.649Z,7.45
2023-05-05T21:25:21.129Z,7.20
2023-05-05T21:27:49.439Z,7.28
2023-05-05T21:30:17.612Z,5.53
2023-05-05T21:32:45.482Z,3.97
2023-05-05T21:35:13.063Z,4.55
2023-05-05T21:37:40.810Z,6.10
2023-05-05T21:40:13.652Z,8.55
2023-05-05T21:42:42.544Z,8.13
2023-05-05T21:45:11.694Z,8.77
2023-05-05T21:47:39.481Z,6.65
2023-05-05T21:50:07.609Z,6.38
2023-05-05T21:52:35.752Z,6.63
2023-05-05T21:55:04.073Z,8.80
2023-05-05T21:57:31.551Z,5.55
2023-05-05T21:59:59.063Z,6.15
2023-05-05T22:02:26.915Z,6.72
2023-05-05T22:04:54.484Z,5.25
2023-05-05T22:07:22.011Z,6.10
2023-05-05T22:09:49.603Z,5.38
2023-05-05T22:12:17.362Z,4.15
2023-05-05T22:14:44.883Z,4.40
2023-05-05T22:17:13.054Z,2.80
2023-05-05T22:19:40.593Z,3.08
2023-05-05T22:22:08.074Z,3.13
2023-05-05T22:24:35.620Z,2.28
2023-05-05T22:27:03.177Z,3.67
2023-05-05T22:29:30.745Z,2.78
2023-05-05T22:31:58.255Z,4.03
2023-05-05T22:34:25.994Z,2.78
2023-05-05T22:36:53.427Z,2.80
2023-05-05T22:39:21.056Z,2.55
2023-05-05T22:41:48.574Z,3.55
2023-05-05T22:44:16.059Z,1.77
2023-05-05T22:46:44.337Z,1.92
2023-05-05T22:49:11.892Z,3.65
2023-05-05T22:51:39.371Z,2.17
2023-05-05T22:54:07.079Z,5.97
2023-05-05T22:56:35.080Z,2.60
2023-05-05T22:59:02.841Z,1.90
2023-05-05T23:01:30.549Z,4.43
2023-05-05T23:03:58.183Z,2.83
2023-05-05T23:06:25.742Z,2.35
2023-05-05T23:08:53.424Z,2.92
2023-05-05T23:11:21.029Z,1.75
2023-05-05T23:13:48.543Z,1.83
2023-05-05T23:16:16.377Z,3.15
2023-05-05T23:18:44.084Z,4.32
2023-05-05T23:21:11.720Z,1.30
2023-05-05T23:23:39.306Z,1.50
2023-05-05T23:26:06.829Z,2.33
2023-05-05T23:28:34.294Z,1.98
2023-05-05T23:31:01.978Z,2.30
2023-05-05T23:33:29.813Z,2.33
2023-05-05T23:35:57.407Z,1.15
2023-05-05T23:38:25.299Z,1.50
2023-05-05T23:40:53.723Z,1.50
2023-05-05T23:43:21.362Z,1.35
2023-05-05T23:45:48.956Z,4.72
2023-05-05T23:48:16.512Z,2.10
2023-05-05T23:50:44.113Z,2.75
2023-05-05T23:53:11.938Z,2.47
2023-05-05T23:55:39.523Z,1.55
2023-05-05T23:58:07.517Z,1.63
